Time;durP1;ratioP1;P1;durP2;ratioP2;P2;SDS_P1;SDS_P2;PMS_P1;PMS_P2;Temp;Humidity;BMP_temperature;BMP_pressure;BME280_temperature;BME280_humidity;BME280_pressure;Samples;Min_cycle;Max_cycle;Signal;HPM_P1;HPM_P2
2021/10/18 00:00:53;;;;;;;34.25;19.73;;;8.20;99.90;;;;;;1986001;70;21045;-79
2021/10/18 00:03:19;;;;;;;27.37;19.45;;;8.20;99.90;;;;;;1990915;70;21062;-79
2021/10/18 00:05:46;;;;;;;32.28;20.25;;;8.10;99.90;;;;;;1984972;71;21024;-78
2021/10/18 00:08:12;;;;;;;35.52;20.77;;;8.10;99.90;;;;;;2000525;70;21059;-78
2021/10/18 00:10:38;;;;;;;35.73;20.17;;;8.00;99.90;;;;;;2012206;70;21066;-79
2021/10/18 00:13:04;;;;;;;40.43;20.12;;;7.90;99.90;;;;;;2012471;70;21454;-78
2021/10/18 00:15:30;;;;;;;33.70;19.73;;;7.80;99.90;;;;;;1992344;70;21379;-78
2021/10/18 00:17:56;;;;;;;36.80;19.30;;;7.80;99.90;;;;;;1994687;70;21446;-78
2021/10/18 00:20:22;;;;;;;35.83;19.12;;;7.80;99.90;;;;;;2007059;70;21547;-78
2021/10/18 00:22:48;;;;;;;41.63;19.35;;;7.80;99.90;;;;;;1992138;70;21441;-78
2021/10/18 00:25:15;;;;;;;40.88;18.60;;;7.70;99.90;;;;;;1985658;70;21023;-78
2021/10/18 00:27:41;;;;;;;31.48;17.37;;;7.70;99.90;;;;;;2020337;70;21128;-78
2021/10/18 00:30:07;;;;;;;30.45;18.30;;;7.60;99.90;;;;;;1991748;70;21119;-78
2021/10/18 00:32:33;;;;;;;31.50;17.77;;;7.50;99.90;;;;;;1994070;70;21116;-77
2021/10/18 00:34:59;;;;;;;28.77;17.70;;;7.50;99.90;;;;;;2000916;70;21145;-78
2021/10/18 00:37:25;;;;;;;30.23;17.32;;;7.50;99.90;;;;;;2017318;70;21051;-77
2021/10/18 00:39:52;;;;;;;28.83;15.95;;;7.50;99.90;;;;;;2019668;70;21178;-78
2021/10/18 00:42:19;;;;;;;26.50;14.93;;;7.60;99.90;;;;;;2021941;70;21494;-78
2021/10/18 00:44:45;;;;;;;28.55;15.93;;;7.50;99.90;;;;;;1992556;70;21469;-78
2021/10/18 00:47:11;;;;;;;37.98;16.65;;;7.60;99.90;;;;;;2024751;70;21117;-78
2021/10/18 00:49:37;;;;;;;33.00;16.65;;;7.60;99.90;;;;;;1984110;70;21046;-78
2021/10/18 00:52:03;;;;;;;29.40;16.15;;;7.60;99.90;;;;;;1991044;70;21123;-77
2021/10/18 00:54:29;;;;;;;24.95;15.18;;;7.60;99.90;;;;;;1993384;71;21113;-78
2021/10/18 00:56:55;;;;;;;26.85;15.93;;;7.60;99.90;;;;;;2016092;70;21046;-78
2021/10/18 00:59:22;;;;;;;30.15;16.65;;;7.60;99.90;;;;;;1991359;70;21062;-78
2021/10/18 01:01:48;;;;;;;32.25;17.85;;;7.50;99.90;;;;;;2007142;70;21176;-78
2021/10/18 01:04:14;;;;;;;26.82;16.50;;;7.50;99.90;;;;;;1991382;70;21106;-78
2021/10/18 01:06:40;;;;;;;30.00;17.87;;;7.60;99.90;;;;;;1986045;71;21088;-77
2021/10/18 01:09:06;;;;;;;36.50;19.87;;;7.60;99.90;;;;;;2016084;70;21054;-78
2021/10/18 01:11:32;;;;;;;32.53;19.05;;;7.60;99.90;;;;;;2014317;70;21054;-79
2021/10/18 01:13:58;;;;;;;34.53;18.50;;;7.50;99.90;;;;;;2019270;70;21066;-78
2021/10/18 01:16:24;;;;;;;30.17;18.20;;;7.50;99.90;;;;;;2002629;70;21493;-78
2021/10/18 01:18:51;;;;;;;30.92;18.60;;;7.60;99.90;;;;;;1998942;70;21480;-78
2021/10/18 01:21:17;;;;;;;32.93;18.25;;;7.70;99.90;;;;;;1993354;70;21541;-78
2021/10/18 01:23:43;;;;;;;32.00;16.82;;;7.70;99.90;;;;;;1992003;70;21515;-78
2021/10/18 01:26:09;;;;;;;26.57;17.45;;;7.70;99.90;;;;;;1982072;70;21423;-78
2021/10/18 01:28:35;;;;;;;25.17;16.20;;;7.70;99.90;;;;;;2024364;70;21059;-78
2021/10/18 01:31:01;;;;;;;26.70;16.67;;;7.80;99.90;;;;;;2004088;70;21120;-78
2021/10/18 01:33:27;;;;;;;30.57;16.97;;;7.70;99.90;;;;;;2012860;70;21063;-78
2021/10/18 01:35:53;;;;;;;24.75;16.05;;;7.70;99.90;;;;;;1995313;70;21016;-77
2021/10/18 01:38:20;;;;;;;26.12;14.98;;;7.80;99.90;;;;;;1982833;70;21151;-78
2021/10/18 01:40:46;;;;;;;23.45;15.80;;;7.80;99.90;;;;;;1988340;70;21188;-78
2021/10/18 01:43:12;;;;;;;27.70;16.45;;;7.80;99.90;;;;;;1995399;70;21105;-78
2021/10/18 01:45:38;;;;;;;34.70;18.77;;;7.70;99.90;;;;;;1989999;70;21016;-78
2021/10/18 01:48:04;;;;;;;30.90;18.52;;;7.50;99.90;;;;;;1993752;70;21165;-78
2021/10/18 01:50:31;;;;;;;34.95;18.87;;;7.50;99.90;;;;;;1982979;70;21046;-77
2021/10/18 01:52:58;;;;;;;33.98;18.27;;;7.40;99.90;;;;;;1991487;70;21128;-79
2021/10/18 01:55:24;;;;;;;31.50;17.42;;;7.50;99.90;;;;;;2011539;70;21019;-78
2021/10/18 01:57:51;;;;;;;36.75;18.65;;;7.50;99.90;;;;;;2019577;70;21050;-78
2021/10/18 02:00:17;;;;;;;32.08;18.90;;;7.50;99.90;;;;;;2015480;70;21067;-78
2021/10/18 02:02:43;;;;;;;34.70;19.48;;;7.40;99.90;;;;;;2005617;70;21123;-76
2021/10/18 02:05:09;;;;;;;33.38;18.80;;;7.40;99.90;;;;;;1995037;70;21056;-77
2021/10/18 02:07:35;;;;;;;37.42;19.42;;;7.40;99.90;;;;;;2004117;70;21139;-78
2021/10/18 02:10:01;;;;;;;31.77;18.27;;;7.40;99.90;;;;;;1994586;70;21530;-79
2021/10/18 02:12:27;;;;;;;35.17;18.95;;;7.30;99.90;;;;;;1988034;70;21552;-78
2021/10/18 02:14:54;;;;;;;32.60;19.17;;;7.30;99.90;;;;;;1995454;70;21167;-77
2021/10/18 02:17:20;;;;;;;33.60;19.07;;;7.30;99.90;;;;;;2007068;70;21458;-78
2021/10/18 02:19:46;;;;;;;31.48;18.40;;;7.40;99.90;;;;;;2001956;70;21481;-78
2021/10/18 02:22:12;;;;;;;33.45;19.55;;;7.40;99.90;;;;;;1986373;70;21046;-79
2021/10/18 02:24:38;;;;;;;31.00;17.32;;;7.40;99.90;;;;;;2006468;70;21024;-78
2021/10/18 02:27:04;;;;;;;33.23;19.02;;;7.50;99.90;;;;;;2000751;70;21043;-79
2021/10/18 02:29:30;;;;;;;34.58;19.02;;;7.50;99.90;;;;;;2003075;70;21055;-79
2021/10/18 02:31:56;;;;;;;32.05;19.23;;;7.40;99.90;;;;;;1992586;70;21046;-78
2021/10/18 02:34:23;;;;;;;34.40;20.65;;;7.40;99.90;;;;;;2012025;70;21028;-78
2021/10/18 02:36:49;;;;;;;34.85;19.85;;;7.40;99.90;;;;;;1984240;70;21051;-79
2021/10/18 02:39:15;;;;;;;35.58;18.60;;;7.50;99.90;;;;;;2012212;70;21054;-78
2021/10/18 02:41:41;;;;;;;31.75;19.15;;;7.40;99.90;;;;;;2023860;70;21062;-77
2021/10/18 02:44:07;;;;;;;40.35;17.80;;;7.50;99.90;;;;;;2009185;70;21024;-78
2021/10/18 02:46:33;;;;;;;33.02;19.50;;;7.50;99.90;;;;;;1998498;70;21053;-79
2021/10/18 02:48:59;;;;;;;31.48;19.02;;;7.50;99.90;;;;;;2003607;70;21172;-78
2021/10/18 02:51:25;;;;;;;32.38;18.52;;;7.40;99.90;;;;;;2005490;70;21106;-78
2021/10/18 02:53:52;;;;;;;36.13;18.95;;;7.50;99.90;;;;;;1995728;70;21016;-78
2021/10/18 02:56:18;;;;;;;37.63;19.00;;;7.50;99.90;;;;;;2010147;70;21125;-78
2021/10/18 02:58:44;;;;;;;40.05;18.85;;;7.60;99.90;;;;;;2009648;70;21112;-78
2021/10/18 03:01:10;;;;;;;31.97;18.67;;;7.80;99.90;;;;;;1990786;70;21046;-79
2021/10/18 03:03:36;;;;;;;35.58;17.80;;;7.80;99.90;;;;;;2002878;70;21115;-78
2021/10/18 03:06:02;;;;;;;33.05;18.40;;;7.80;99.90;;;;;;1992881;70;21247;-77
2021/10/18 03:08:28;;;;;;;34.00;18.45;;;7.70;99.90;;;;;;2014378;70;21051;-76
2021/10/18 03:10:54;;;;;;;30.68;19.23;;;7.60;99.90;;;;;;2021120;70;21454;-77
2021/10/18 03:13:21;;;;;;;39.05;16.85;;;7.80;99.90;;;;;;1987073;70;21445;-77
2021/10/18 03:15:47;;;;;;;25.17;17.00;;;7.90;99.90;;;;;;1988309;70;21449;-76
2021/10/18 03:18:13;;;;;;;28.23;17.17;;;8.00;99.90;;;;;;2003822;70;21728;-77
2021/10/18 03:20:39;;;;;;;30.48;18.17;;;8.00;99.90;;;;;;2003325;70;21175;-76
2021/10/18 03:23:05;;;;;;;30.50;17.62;;;8.00;99.90;;;;;;1999898;70;21042;-77
2021/10/18 03:25:34;;;;;;;37.23;18.52;;;8.00;99.90;;;;;;1993854;70;21054;-77
2021/10/18 03:27:59;;;;;;;35.68;18.85;;;8.00;99.90;;;;;;2019526;70;21499;-76
2021/10/18 03:30:25;;;;;;;39.53;19.20;;;7.90;99.90;;;;;;2021531;70;21515;-77
2021/10/18 03:32:51;;;;;;;39.20;19.82;;;7.90;99.90;;;;;;1999292;70;21478;-77
2021/10/18 03:35:17;;;;;;;37.75;19.92;;;7.80;99.90;;;;;;2017480;70;21516;-77
2021/10/18 03:37:44;;;;;;;39.98;19.45;;;7.80;99.90;;;;;;2011618;70;21124;-77
2021/10/18 03:40:12;;;;;;;41.08;19.45;;;7.90;99.90;;;;;;1993159;70;21123;-76
2021/10/18 03:42:38;;;;;;;36.03;18.60;;;7.90;99.90;;;;;;1984678;70;21200;-77
2021/10/18 03:45:04;;;;;;;33.48;18.10;;;8.00;99.90;;;;;;1983856;70;21054;-77
2021/10/18 03:47:30;;;;;;;32.93;18.37;;;8.20;99.90;;;;;;1998912;70;21059;-77
2021/10/18 03:49:56;;;;;;;36.35;18.55;;;8.10;99.90;;;;;;1983738;70;21120;-78
2021/10/18 03:52:22;;;;;;;34.33;18.10;;;8.20;99.90;;;;;;2010610;70;21450;-78
2021/10/18 03:54:48;;;;;;;31.85;17.70;;;8.10;99.90;;;;;;1993912;70;21128;-77
2021/10/18 03:57:16;;;;;;;36.30;18.42;;;8.20;99.90;;;;;;2012785;70;22659;-77
2021/10/18 03:59:42;;;;;;;33.05;18.15;;;8.20;99.90;;;;;;2019078;70;21400;-77
2021/10/18 04:02:09;;;;;;;30.20;16.95;;;8.10;99.90;;;;;;1996919;70;21460;-77
2021/10/18 04:04:36;;;;;;;33.60;17.50;;;8.20;99.90;;;;;;2012131;70;21046;-77
2021/10/18 04:07:02;;;;;;;42.38;19.02;;;8.20;99.90;;;;;;2009830;70;21135;-77
2021/10/18 04:09:28;;;;;;;39.08;19.80;;;8.10;99.90;;;;;;2026777;70;21174;-77
2021/10/18 04:11:54;;;;;;;39.18;20.25;;;8.10;99.90;;;;;;2001376;70;21057;-77
2021/10/18 04:14:20;;;;;;;44.65;19.87;;;8.00;99.90;;;;;;1994774;70;21057;-77
2021/10/18 04:16:46;;;;;;;40.98;20.68;;;7.90;99.90;;;;;;2002172;70;21067;-77
2021/10/18 04:19:12;;;;;;;44.95;21.35;;;8.00;99.90;;;;;;2007603;70;21066;-77
2021/10/18 04:21:38;;;;;;;42.48;21.15;;;7.90;99.90;;;;;;1987796;70;21164;-77
2021/10/18 04:24:05;;;;;;;42.83;20.48;;;7.90;99.90;;;;;;1989048;70;21168;-78
2021/10/18 04:26:31;;;;;;;44.33;20.25;;;7.90;99.90;;;;;;2015931;70;21120;-77
2021/10/18 04:28:57;;;;;;;38.48;19.87;;;8.00;99.90;;;;;;1992549;70;21023;-77
2021/10/18 04:31:28;;;;;;;39.13;19.92;;;8.20;99.90;;;;;;1996671;70;21043;-81
2021/10/18 04:33:51;;;;;;;38.15;19.25;;;8.30;99.90;;;;;;1989870;70;21565;-80
2021/10/18 04:36:17;;;;;;;44.65;19.45;;;8.30;99.90;;;;;;2011546;70;21533;-81
2021/10/18 04:38:43;;;;;;;36.13;19.10;;;8.40;99.90;;;;;;2022447;70;21027;-80
2021/10/18 04:41:09;;;;;;;43.33;19.27;;;8.40;99.90;;;;;;2005385;70;21050;-78
2021/10/18 04:43:35;;;;;;;40.78;18.67;;;8.40;99.90;;;;;;1995310;70;21058;-79
2021/10/18 04:46:01;;;;;;;44.08;19.73;;;8.40;99.90;;;;;;1986149;70;21148;-78
2021/10/18 04:48:27;;;;;;;40.83;20.30;;;8.40;99.90;;;;;;2001116;70;21053;-78
2021/10/18 04:50:54;;;;;;;38.17;20.35;;;8.30;99.90;;;;;;2003222;70;21117;-78
2021/10/18 04:53:20;;;;;;;34.27;18.98;;;8.20;99.90;;;;;;1993620;70;21132;-78
2021/10/18 04:55:46;;;;;;;43.38;20.30;;;8.30;99.90;;;;;;1993964;70;21111;-78
2021/10/18 04:58:12;;;;;;;35.10;19.60;;;8.30;99.90;;;;;;2001715;70;21058;-84
2021/10/18 05:00:42;;;;;;;45.15;22.32;;;8.20;99.90;;;;;;2007229;70;21140;-79
2021/10/18 05:03:06;;;;;;;45.40;21.50;;;8.10;99.90;;;;;;2008875;70;21293;-79
2021/10/18 05:05:34;;;;;;;42.83;20.40;;;8.10;99.90;;;;;;2000872;70;21129;-79
2021/10/18 05:08:00;;;;;;;41.85;21.45;;;8.10;99.90;;;;;;2005718;70;21447;-79
2021/10/18 05:10:26;;;;;;;46.83;21.05;;;8.20;99.90;;;;;;1987933;70;21675;-79
2021/10/18 05:12:52;;;;;;;41.92;21.00;;;8.30;99.90;;;;;;2011980;70;21805;-79
2021/10/18 05:15:18;;;;;;;48.00;21.15;;;8.30;99.90;;;;;;1981693;70;21501;-79
2021/10/18 05:17:44;;;;;;;44.65;21.27;;;8.30;99.90;;;;;;2011310;70;21059;-76
2021/10/18 05:20:10;;;;;;;43.15;21.30;;;8.40;99.90;;;;;;1989611;70;21522;-78
2021/10/18 05:22:37;;;;;;;40.92;21.25;;;8.40;99.90;;;;;;2003134;70;21141;-78
2021/10/18 05:25:03;;;;;;;46.77;21.42;;;8.50;99.90;;;;;;2005861;70;22532;-78
2021/10/18 05:27:29;;;;;;;38.78;19.92;;;8.50;99.90;;;;;;1990846;70;21058;-79
2021/10/18 05:29:55;;;;;;;47.93;21.57;;;8.50;99.90;;;;;;2008948;70;21217;-80
2021/10/18 05:32:21;;;;;;;45.20;19.95;;;8.50;99.90;;;;;;2003064;70;21050;-78
2021/10/18 05:34:47;;;;;;;42.88;20.65;;;8.50;99.90;;;;;;1986130;70;21016;-79
2021/10/18 05:37:13;;;;;;;42.78;21.17;;;8.50;99.90;;;;;;1984911;70;21097;-80
2021/10/18 05:39:39;;;;;;;41.77;20.77;;;8.50;99.90;;;;;;1998394;70;21054;-82
2021/10/18 05:42:06;;;;;;;44.73;21.00;;;8.40;99.90;;;;;;1994271;70;21139;-82
2021/10/18 05:44:32;;;;;;;43.38;21.85;;;8.50;99.90;;;;;;1996182;70;21145;-80
2021/10/18 05:46:58;;;;;;;45.08;21.30;;;8.50;99.90;;;;;;1998313;70;21050;-77
2021/10/18 05:49:25;;;;;;;40.20;21.73;;;8.50;99.90;;;;;;1994355;70;21046;-80
2021/10/18 05:51:52;;;;;;;44.13;22.10;;;8.50;99.90;;;;;;2011257;70;21058;-81
2021/10/18 05:54:18;;;;;;;39.85;20.95;;;8.40;99.90;;;;;;2005184;70;21109;-81
2021/10/18 05:56:45;;;;;;;41.35;20.68;;;8.50;99.90;;;;;;2003887;70;21504;-82
2021/10/18 05:59:11;;;;;;;41.37;21.40;;;8.40;99.90;;;;;;1995242;70;21215;-79
2021/10/18 06:01:37;;;;;;;45.52;23.25;;;8.40;99.90;;;;;;2002560;70;21059;-79
2021/10/18 06:04:04;;;;;;;45.63;22.52;;;8.30;99.90;;;;;;1996157;70;21050;-80
2021/10/18 06:06:32;;;;;;;52.90;23.15;;;8.20;99.90;;;;;;2028233;70;21066;-80
2021/10/18 06:08:58;;;;;;;45.23;23.10;;;8.20;99.90;;;;;;1993776;71;21091;-79
2021/10/18 06:11:24;;;;;;;47.15;23.25;;;8.30;99.90;;;;;;2016816;70;21466;-79
2021/10/18 06:13:50;;;;;;;40.20;20.12;;;8.30;99.90;;;;;;1990596;70;21018;-79
2021/10/18 06:16:16;;;;;;;45.67;21.70;;;8.40;99.90;;;;;;2007351;70;21049;-79
2021/10/18 06:18:42;;;;;;;37.25;21.05;;;8.40;99.90;;;;;;1993969;70;21042;-79
2021/10/18 06:21:08;;;;;;;47.65;21.75;;;8.50;99.90;;;;;;1984505;70;21119;-80
2021/10/18 06:23:34;;;;;;;44.15;21.75;;;8.60;99.90;;;;;;2018211;70;21128;-79
2021/10/18 06:26:01;;;;;;;44.58;22.30;;;8.60;99.90;;;;;;1997465;70;21132;-79
2021/10/18 06:28:27;;;;;;;50.90;23.02;;;8.60;99.90;;;;;;2025650;70;21050;-79
2021/10/18 06:30:53;;;;;;;42.10;22.80;;;8.50;99.90;;;;;;2002511;70;21024;-79
2021/10/18 06:33:24;;;;;;;50.03;23.42;;;8.60;99.90;;;;;;2027861;70;21059;-80
2021/10/18 06:35:50;;;;;;;49.42;23.87;;;8.60;99.90;;;;;;2010464;70;21080;-79
2021/10/18 06:38:16;;;;;;;57.00;24.75;;;8.60;99.90;;;;;;1993038;71;21046;-79
2021/10/18 06:40:42;;;;;;;52.98;24.37;;;8.50;99.90;;;;;;1991460;70;21153;-82
2021/10/18 06:43:08;;;;;;;46.95;23.02;;;8.60;99.90;;;;;;1993927;70;21312;-80
2021/10/18 06:45:34;;;;;;;46.85;23.18;;;8.60;99.90;;;;;;2003697;70;21026;-81
2021/10/18 06:48:00;;;;;;;47.83;22.40;;;8.60;99.90;;;;;;1988072;71;21055;-83
2021/10/18 06:50:28;;;;;;;51.58;22.00;;;8.70;99.90;;;;;;1995468;70;21585;-82
2021/10/18 06:52:54;;;;;;;44.93;22.22;;;8.60;99.90;;;;;;1984395;70;21095;-81
2021/10/18 06:55:22;;;;;;;37.80;21.65;;;8.70;99.90;;;;;;2008413;70;21183;-82
2021/10/18 06:57:48;;;;;;;38.23;21.57;;;8.70;99.90;;;;;;1987534;70;21180;-82
2021/10/18 07:00:14;;;;;;;44.18;22.37;;;8.80;99.90;;;;;;1994750;70;21058;-83
2021/10/18 07:02:40;;;;;;;44.75;22.67;;;8.80;99.90;;;;;;1984844;70;21058;-81
2021/10/18 07:05:06;;;;;;;45.23;22.02;;;8.70;99.90;;;;;;1996873;70;21136;-82
2021/10/18 07:07:36;;;;;;;51.58;23.10;;;8.80;99.90;;;;;;2020315;70;21051;-82
2021/10/18 07:10:00;;;;;;;45.10;24.00;;;8.80;99.90;;;;;;1992450;70;21152;-82
2021/10/18 07:12:27;;;;;;;38.92;21.10;;;8.80;99.90;;;;;;2006234;70;21124;-82
2021/10/18 07:14:53;;;;;;;44.85;22.50;;;8.90;99.90;;;;;;1998004;70;21121;-81
2021/10/18 07:17:21;;;;;;;54.55;21.62;;;8.90;99.90;;;;;;1993659;70;21129;-82
2021/10/18 07:19:47;;;;;;;40.10;21.80;;;8.90;99.90;;;;;;2008115;70;21479;-81
2021/10/18 07:22:13;;;;;;;43.65;22.37;;;8.90;99.90;;;;;;2018494;70;21538;-81
2021/10/18 07:24:39;;;;;;;46.58;22.73;;;9.00;99.90;;;;;;2003667;70;21050;-81
2021/10/18 07:27:05;;;;;;;53.48;24.47;;;9.10;99.90;;;;;;1983363;70;21097;-83
2021/10/18 07:29:31;;;;;;;42.55;21.93;;;9.20;99.90;;;;;;2015400;70;21431;-81
2021/10/18 07:31:57;;;;;;;47.58;23.20;;;9.30;99.90;;;;;;2005678;71;21458;-81
2021/10/18 07:34:24;;;;;;;48.38;23.20;;;9.20;99.90;;;;;;2020874;70;21105;-82
2021/10/18 07:36:50;;;;;;;50.43;24.12;;;9.10;99.90;;;;;;1989795;70;21050;-81
2021/10/18 07:39:16;;;;;;;50.12;23.70;;;9.10;99.90;;;;;;2005779;70;21054;-81
2021/10/18 07:41:42;;;;;;;41.85;21.87;;;9.10;99.90;;;;;;2009733;70;21058;-82
2021/10/18 07:44:08;;;;;;;42.93;21.93;;;9.20;99.90;;;;;;2015757;70;21463;-81
2021/10/18 07:46:34;;;;;;;44.23;23.52;;;9.20;99.90;;;;;;2005000;70;21487;-81
2021/10/18 07:49:01;;;;;;;35.25;21.97;;;9.30;99.90;;;;;;2015514;70;21482;-81
2021/10/18 07:51:27;;;;;;;45.52;24.12;;;9.40;99.90;;;;;;1990922;70;21310;-82
2021/10/18 07:53:53;;;;;;;37.98;21.75;;;9.40;99.90;;;;;;1999374;70;21223;-82
2021/10/18 07:56:19;;;;;;;38.30;22.85;;;9.50;99.90;;;;;;1995876;70;21063;-81
2021/10/18 07:58:45;;;;;;;41.60;22.85;;;9.40;99.90;;;;;;2007825;70;21058;-81
2021/10/18 08:01:11;;;;;;;49.03;22.05;;;9.40;99.90;;;;;;1998513;70;21085;-81
2021/10/18 08:03:37;;;;;;;32.03;20.77;;;9.40;99.90;;;;;;1996325;71;21132;-81
2021/10/18 08:06:04;;;;;;;37.88;20.08;;;9.30;99.90;;;;;;2000970;70;21109;-81
2021/10/18 08:08:42;;;;;;;33.05;19.90;;;9.40;99.90;;;;;;1989088;70;21128;-80
2021/10/18 08:11:01;;;;;;;35.05;20.05;;;9.40;99.90;;;;;;1986569;70;21116;-80
2021/10/18 08:13:27;;;;;;;40.23;20.55;;;9.40;99.90;;;;;;1996063;70;21055;-79
2021/10/18 08:15:53;;;;;;;32.80;19.95;;;9.40;99.90;;;;;;2010222;70;21071;-80
2021/10/18 08:18:19;;;;;;;33.33;20.15;;;9.50;99.90;;;;;;2018246;70;21062;-80
2021/10/18 08:20:45;;;;;;;33.83;20.40;;;9.50;99.90;;;;;;1997076;70;21113;-80
2021/10/18 08:23:12;;;;;;;24.50;18.70;;;9.50;99.90;;;;;;1999340;70;21048;-80
2021/10/18 08:25:40;;;;;;;24.40;19.00;;;9.50;99.90;;;;;;1991537;70;21445;-78
2021/10/18 08:28:05;;;;;;;27.05;18.37;;;9.40;99.90;;;;;;1989467;70;21166;-79
2021/10/18 08:30:33;;;;;;;27.82;18.60;;;9.50;99.90;;;;;;1994052;70;21097;-78
2021/10/18 08:33:01;;;;;;;31.12;19.10;;;9.40;99.90;;;;;;2002796;70;21058;-80
2021/10/18 08:35:27;;;;;;;31.20;19.48;;;9.30;99.90;;;;;;1992382;70;21443;-80
2021/10/18 08:40:45;;;;;;;25.62;17.40;;;9.30;99.90;;;;;;2016204;70;21135;-79
2021/10/18 08:43:20;;;;;;;27.77;19.10;;;9.40;99.90;;;;;;1995634;70;21173;-78
2021/10/18 08:45:34;;;;;;;28.27;17.15;;;9.50;99.90;;;;;;1981852;70;21174;-79
2021/10/18 08:48:01;;;;;;;22.70;16.07;;;9.50;99.90;;;;;;1986810;70;21687;-80
2021/10/18 08:50:27;;;;;;;27.37;17.02;;;9.60;99.90;;;;;;2003202;70;21187;-80
2021/10/18 08:52:54;;;;;;;29.10;18.40;;;9.70;99.90;;;;;;2021135;70;21450;-81
2021/10/18 08:55:20;;;;;;;26.07;17.73;;;9.70;99.90;;;;;;2002535;70;21438;-79
2021/10/18 08:57:47;;;;;;;25.97;17.57;;;9.70;99.90;;;;;;1998201;70;21481;-77
2021/10/18 09:00:14;;;;;;;29.77;18.35;;;9.70;99.90;;;;;;2000630;70;21070;-78
2021/10/18 09:02:40;;;;;;;30.68;18.42;;;9.60;99.90;;;;;;1964905;71;21103;-78
2021/10/18 09:05:06;;;;;;;26.05;18.30;;;9.60;99.90;;;;;;2002044;70;21475;-79
2021/10/18 09:07:32;;;;;;;29.57;18.85;;;9.70;99.90;;;;;;2009461;70;21478;-79
2021/10/18 09:09:59;;;;;;;27.15;17.48;;;9.80;99.90;;;;;;2025843;70;21560;-79
2021/10/18 09:12:25;;;;;;;29.98;17.75;;;9.80;99.90;;;;;;2000144;70;21032;-80
2021/10/18 09:14:51;;;;;;;26.33;16.52;;;9.80;99.90;;;;;;2019631;70;21059;-79
2021/10/18 09:17:17;;;;;;;28.52;17.42;;;9.90;99.90;;;;;;2001333;70;21055;-79
2021/10/18 09:19:43;;;;;;;32.93;17.77;;;9.80;99.90;;;;;;1987051;70;21109;-79
2021/10/18 09:22:10;;;;;;;31.25;17.80;;;9.80;99.90;;;;;;1990018;70;21045;-79
2021/10/18 09:24:36;;;;;;;28.10;16.85;;;9.80;99.90;;;;;;1998170;70;21526;-79
2021/10/18 09:27:03;;;;;;;31.70;16.77;;;9.80;99.90;;;;;;2002991;70;21132;-79
2021/10/18 09:29:29;;;;;;;30.92;17.50;;;10.00;99.90;;;;;;2017656;70;21124;-79
2021/10/18 09:31:55;;;;;;;32.55;16.93;;;10.00;99.90;;;;;;2002496;70;21046;-79
2021/10/18 09:34:21;;;;;;;24.05;16.87;;;10.10;99.90;;;;;;1993148;70;21119;-79
2021/10/18 09:36:47;;;;;;;26.15;17.32;;;10.10;99.90;;;;;;1987561;70;21041;-79
2021/10/18 09:39:13;;;;;;;25.40;16.42;;;10.10;99.90;;;;;;1997823;70;21070;-79
2021/10/18 09:41:40;;;;;;;20.77;15.95;;;10.10;99.90;;;;;;1991017;70;21124;-78
2021/10/18 09:44:14;;;;;;;31.93;18.85;;;10.10;99.90;;;;;;1990173;70;21119;-78
2021/10/18 09:46:38;;;;;;;26.62;18.32;;;10.20;99.90;;;;;;2018521;70;21167;-79
2021/10/18 10:52:01;;;;;;;27.10;16.00;;;13.30;99.90;;;;;;2016187;70;21454;-81
2021/10/18 10:54:25;;;;;;;22.75;15.75;;;14.10;99.90;;;;;;1986693;70;21102;-81
2021/10/18 10:56:58;;;;;;;24.65;15.28;;;14.40;99.90;;;;;;1988468;70;21101;-82
2021/10/18 10:59:20;;;;;;;23.45;15.70;;;14.80;99.90;;;;;;1992558;70;21058;-81
2021/10/18 11:01:47;;;;;;;24.87;15.05;;;15.30;99.90;;;;;;2008693;70;21058;-82
2021/10/18 11:04:13;;;;;;;20.43;15.53;;;14.20;99.90;;;;;;2026170;70;21051;-82
2021/10/18 11:06:39;;;;;;;23.83;14.95;;;14.10;99.90;;;;;;2007752;70;21055;-81
2021/10/18 11:09:05;;;;;;;19.27;15.50;;;14.30;99.90;;;;;;2018131;70;21128;-80
2021/10/18 11:11:31;;;;;;;23.55;16.00;;;14.20;99.90;;;;;;2003390;70;21146;-74
2021/10/18 11:13:57;;;;;;;22.48;14.73;;;14.70;99.90;;;;;;2008164;70;21063;-76
2021/10/18 11:16:23;;;;;;;24.15;15.48;;;15.10;99.90;;;;;;2013422;70;21094;-76
2021/10/18 11:18:50;;;;;;;22.10;14.20;;;15.00;99.90;;;;;;1992394;70;21054;-76
2021/10/18 11:21:16;;;;;;;18.90;12.98;;;15.00;99.90;;;;;;2013414;70;21059;-81
2021/10/18 11:23:42;;;;;;;28.85;14.47;;;15.30;99.90;;;;;;2008596;70;21136;-83
2021/10/18 11:26:08;;;;;;;22.20;14.50;;;14.80;99.90;;;;;;1990991;70;21050;-83
2021/10/18 11:28:34;;;;;;;17.25;13.72;;;14.70;99.90;;;;;;2001933;70;21233;-84
2021/10/18 11:31:00;;;;;;;19.35;13.75;;;14.90;99.90;;;;;;1985298;70;21030;-83
2021/10/18 11:33:26;;;;;;;18.32;14.20;;;15.80;99.90;;;;;;2000453;70;21046;-83
2021/10/18 11:35:52;;;;;;;17.73;13.58;;;16.10;99.90;;;;;;1995436;70;21180;-82
2021/10/18 11:38:19;;;;;;;17.23;11.80;;;17.30;99.90;;;;;;2009599;70;21054;-83
2021/10/18 11:40:46;;;;;;;15.70;11.97;;;17.80;99.90;;;;;;1994240;70;21055;-83
2021/10/18 11:43:12;;;;;;;16.37;12.78;;;18.30;99.90;;;;;;2024106;70;21136;-83
2021/10/18 11:45:38;;;;;;;18.85;12.03;;;17.40;99.90;;;;;;1996698;70;21448;-84
2021/10/18 11:48:04;;;;;;;21.07;13.20;;;17.30;99.90;;;;;;2028264;70;21524;-83
2021/10/18 11:50:36;;;;;;;21.48;13.32;;;17.20;99.90;;;;;;2003858;70;21579;-84
2021/10/18 11:52:59;;;;;;;23.05;11.73;;;16.50;99.90;;;;;;1997051;70;21067;-84
2021/10/18 11:55:25;;;;;;;16.25;12.53;;;16.90;99.90;;;;;;1995966;70;21062;-84
2021/10/18 11:57:51;;;;;;;17.60;11.60;;;18.00;99.90;;;;;;1987887;70;21057;-83
2021/10/18 12:00:17;;;;;;;19.45;12.33;;;17.50;99.90;;;;;;1982266;70;21027;-84
2021/10/18 12:02:45;;;;;;;18.98;11.88;;;17.10;99.90;;;;;;2003978;70;21053;-84
2021/10/18 12:05:11;;;;;;;17.62;11.40;;;17.50;99.90;;;;;;2016866;70;21090;-84
2021/10/18 12:07:37;;;;;;;18.02;12.40;;;17.70;99.90;;;;;;1997196;70;21124;-85
2021/10/18 12:10:03;;;;;;;17.42;12.00;;;18.10;99.90;;;;;;1990504;70;21098;-78
2021/10/18 12:12:29;;;;;;;15.15;11.05;;;17.10;99.90;;;;;;1999356;71;21050;-79
2021/10/18 12:14:59;;;;;;;15.78;11.08;;;17.20;99.90;;;;;;1988659;70;21007;-82
2021/10/18 12:17:23;;;;;;;19.35;11.48;;;18.00;99.90;;;;;;1997042;70;21188;-85
2021/10/18 12:19:49;;;;;;;18.77;11.00;;;17.90;99.90;;;;;;2009554;70;21192;-81
2021/10/18 12:22:16;;;;;;;13.53;10.98;;;17.90;99.90;;;;;;1996936;70;21184;-85
2021/10/18 12:24:42;;;;;;;17.82;11.63;;;18.00;99.90;;;;;;2002597;70;21062;-82
2021/10/18 12:27:13;;;;;;;15.75;10.68;;;17.00;99.90;;;;;;1992645;70;21054;-80
2021/10/18 12:29:36;;;;;;;21.30;11.00;;;17.60;99.90;;;;;;2004791;70;21151;-79
2021/10/18 12:32:03;;;;;;;15.28;10.32;;;17.50;99.90;;;;;;2020040;70;21027;-79
2021/10/18 12:34:29;;;;;;;15.08;10.43;;;18.20;99.90;;;;;;1991810;70;21061;-82
2021/10/18 12:36:55;;;;;;;15.43;10.58;;;17.70;99.90;;;;;;2015810;70;21172;-83
2021/10/18 12:39:21;;;;;;;12.75;10.68;;;18.30;99.90;;;;;;2009051;70;21399;-82
2021/10/18 12:41:48;;;;;;;12.75;9.53;;;18.50;99.90;;;;;;2014345;70;21403;-84
2021/10/18 12:44:14;;;;;;;13.03;8.98;;;18.80;99.90;;;;;;2029585;70;21121;-81
2021/10/18 12:46:42;;;;;;;14.33;9.78;;;19.40;99.90;;;;;;2008731;70;21050;-79
2021/10/18 12:49:09;;;;;;;15.08;9.05;;;19.80;99.90;;;;;;2001918;70;21010;-80
2021/10/18 12:51:35;;;;;;;13.72;8.60;;;19.00;99.90;;;;;;2001133;70;21062;-82
2021/10/18 12:54:01;;;;;;;16.20;8.78;;;18.70;99.90;;;;;;2015954;70;21050;-79
2021/10/18 12:56:27;;;;;;;12.63;9.10;;;19.50;99.90;;;;;;1988290;70;21015;-82
2021/10/18 12:58:53;;;;;;;9.85;8.38;;;19.50;99.90;;;;;;1985770;70;21054;-79
2021/10/18 13:01:19;;;;;;;10.68;7.35;;;18.50;99.90;;;;;;2019552;70;21163;-78
2021/10/18 13:03:45;;;;;;;9.13;7.65;;;19.00;99.90;;;;;;1997762;70;21031;-79
2021/10/18 13:06:11;;;;;;;19.95;8.58;;;19.40;99.90;;;;;;2005017;70;21129;-79
2021/10/18 13:08:38;;;;;;;11.22;8.33;;;19.20;99.90;;;;;;2027442;70;21062;-79
2021/10/18 13:11:04;;;;;;;10.90;8.80;;;19.10;99.90;;;;;;2010497;70;21261;-79
2021/10/18 13:13:30;;;;;;;15.23;9.03;;;18.50;99.90;;;;;;2016806;70;21071;-80
2021/10/18 13:15:57;;;;;;;10.25;7.95;;;19.10;99.90;;;;;;1991983;70;21093;-82
2021/10/18 13:18:23;;;;;;;9.75;7.97;;;19.20;99.90;;;;;;1988455;70;21066;-80
2021/10/18 13:20:50;;;;;;;10.35;8.25;;;19.20;99.90;;;;;;2017305;70;21151;-80
2021/10/18 13:23:16;;;;;;;10.60;8.03;;;19.20;99.90;;;;;;2000714;70;21062;-80
2021/10/18 13:25:42;;;;;;;11.68;8.63;;;19.70;99.90;;;;;;2008784;70;21050;-77
2021/10/18 13:28:08;;;;;;;11.75;7.58;;;20.00;99.90;;;;;;2002456;70;21117;-79
2021/10/18 13:30:35;;;;;;;9.23;7.85;;;19.90;99.90;;;;;;2020585;70;21494;-79
2021/10/18 13:33:01;;;;;;;11.20;7.62;;;19.40;99.90;;;;;;2001935;70;21536;-80
2021/10/18 13:35:27;;;;;;;10.10;8.20;;;19.10;99.90;;;;;;1994072;70;21450;-80